createdAt,value
2019-03-24T00:01:22.450Z,95.22
2019-03-24T00:03:49.924Z,95.77
2019-03-24T00:06:17.429Z,95.39
2019-03-24T00:08:44.898Z,95.62
2019-03-24T00:11:12.453Z,96.42
2019-03-24T00:13:40.215Z,96.06
2019-03-24T00:16:07.736Z,96.40
2019-03-24T00:18:35.209Z,95.49
2019-03-24T00:21:02.922Z,95.75
2019-03-24T00:23:30.379Z,95.71
2019-03-24T00:25:57.894Z,95.08
2019-03-24T00:28:25.394Z,95.84
2019-03-24T00:30:52.875Z,94.97
2019-03-24T00:33:20.538Z,94.67
2019-03-24T00:35:48.030Z,94.51
2019-03-24T00:38:15.489Z,94.35
2019-03-24T00:40:42.983Z,94.69
2019-03-24T00:43:10.462Z,94.89
2019-03-24T00:45:37.963Z,95.04
2019-03-24T00:48:05.628Z,94.15
2019-03-24T00:50:33.141Z,94.23
2019-03-24T00:53:00.627Z,94.45
2019-03-24T00:55:28.139Z,94.14
2019-03-24T00:57:55.618Z,95.50
2019-03-24T01:00:41.405Z,95.60
2019-03-24T01:03:08.885Z,95.51
2019-03-24T01:05:36.392Z,95.67
2019-03-24T01:08:04.000Z,96.30
2019-03-24T01:10:31.511Z,96.67
2019-03-24T01:12:58.970Z,97.01
2019-03-24T01:15:26.468Z,97.52
2019-03-24T01:17:53.930Z,97.17
2019-03-24T01:20:21.538Z,97.35
2019-03-24T01:22:49.111Z,97.49
2019-03-24T01:25:16.611Z,97.23
2019-03-24T01:27:44.078Z,97.25
2019-03-24T01:30:12.740Z,97.56
2019-03-24T01:32:40.214Z,97.58
2019-03-24T01:35:07.841Z,97.22
2019-03-24T01:37:35.294Z,97.44
2019-03-24T01:40:03.021Z,97.69
2019-03-24T01:42:30.487Z,98.71
2019-03-24T01:44:57.980Z,97.96
2019-03-24T01:47:25.426Z,97.75
2019-03-24T01:49:52.915Z,98.69
2019-03-24T01:52:20.383Z,98.51
2019-03-24T01:54:47.842Z,99.14
2019-03-24T01:57:15.331Z,98.53
2019-03-24T01:59:42.807Z,98.53
2019-03-24T02:02:10.467Z,98.98
2019-03-24T02:04:37.947Z,99.12
2019-03-24T02:07:05.464Z,99.35
2019-03-24T02:09:32.936Z,99.46
2019-03-24T02:12:01.298Z,100.00
2019-03-24T02:14:28.779Z,100.00
2019-03-24T02:16:56.285Z,100.00
2019-03-24T02:19:23.757Z,100.00
2019-03-24T02:21:51.279Z,100.00
2019-03-24T02:24:18.763Z,100.00
2019-03-24T02:26:46.271Z,100.00
2019-03-24T02:29:13.785Z,100.00
2019-03-24T02:31:41.307Z,100.00
2019-03-24T02:34:08.764Z,100.00
2019-03-24T02:36:36.254Z,100.00
2019-03-24T02:39:06.045Z,100.00
2019-03-24T02:41:33.537Z,100.00
2019-03-24T02:44:00.994Z,100.00
2019-03-24T02:46:28.502Z,100.00
2019-03-24T02:48:55.965Z,100.00
2019-03-24T02:51:23.449Z,100.00
2019-03-24T02:53:50.935Z,100.00
2019-03-24T02:56:18.732Z,100.00
2019-03-24T02:58:46.217Z,100.00
2019-03-24T03:01:13.716Z,100.00
2019-03-24T03:03:41.179Z,100.00
2019-03-24T03:06:08.689Z,100.00
2019-03-24T03:08:36.157Z,100.00
2019-03-24T03:11:04.066Z,100.00
2019-03-24T03:13:31.553Z,100.00
2019-03-24T03:15:59.072Z,100.00
2019-03-24T03:18:26.596Z,100.00
2019-03-24T03:20:54.118Z,100.00
2019-03-24T03:23:21.665Z,100.00
2019-03-24T03:25:49.213Z,100.00
2019-03-24T03:28:16.803Z,100.00
2019-03-24T03:30:44.341Z,100.00
2019-03-24T03:33:12.182Z,100.00
2019-03-24T03:35:39.745Z,100.00
2019-03-24T03:38:07.249Z,100.00
2019-03-24T03:40:34.781Z,100.00
2019-03-24T03:43:02.257Z,100.00
2019-03-24T03:45:29.781Z,100.00
2019-03-24T03:47:57.256Z,100.00
2019-03-24T03:50:24.750Z,100.00
2019-03-24T03:52:52.222Z,100.00
2019-03-24T03:55:19.709Z,100.00
2019-03-24T03:57:47.226Z,100.00
2019-03-24T04:00:14.830Z,100.00
2019-03-24T04:02:42.371Z,100.00
2019-03-24T04:05:10.084Z,100.00
2019-03-24T04:07:37.602Z,100.00
2019-03-24T04:10:06.064Z,100.00
2019-03-24T04:12:33.577Z,100.00
2019-03-24T04:15:01.103Z,100.00
2019-03-24T04:17:28.698Z,100.00
2019-03-24T04:19:56.286Z,100.00
2019-03-24T04:22:23.814Z,100.00
2019-03-24T04:24:51.273Z,100.00
2019-03-24T04:27:18.786Z,100.00
2019-03-24T04:29:46.290Z,100.00
2019-03-24T04:32:13.797Z,100.00
2019-03-24T04:34:41.324Z,100.00
2019-03-24T04:37:08.845Z,100.00
2019-03-24T04:39:36.315Z,100.00
2019-03-24T04:42:03.892Z,100.00
2019-03-24T04:44:31.403Z,100.00
2019-03-24T04:46:58.963Z,100.00
2019-03-24T04:49:26.463Z,100.00
2019-03-24T04:51:54.022Z,100.00
2019-03-24T04:54:21.517Z,100.00
2019-03-24T04:56:49.029Z,100.00
2019-03-24T04:59:16.552Z,100.00
2019-03-24T05:01:44.052Z,100.00
2019-03-24T05:04:11.566Z,100.00
2019-03-24T05:06:39.927Z,100.00
2019-03-24T05:09:07.421Z,100.00
2019-03-24T05:11:34.970Z,100.00
2019-03-24T05:14:02.463Z,100.00
2019-03-24T05:16:29.983Z,100.00
2019-03-24T05:18:57.464Z,100.00
2019-03-24T05:21:24.968Z,100.00
2019-03-24T05:23:52.454Z,100.00
2019-03-24T05:26:19.956Z,100.00
2019-03-24T05:28:47.436Z,100.00
2019-03-24T05:31:14.939Z,100.00
2019-03-24T05:33:42.456Z,100.00
2019-03-24T05:36:09.968Z,100.00
2019-03-24T05:38:37.472Z,100.00
2019-03-24T05:41:05.114Z,100.00
2019-03-24T05:43:32.663Z,100.00
2019-03-24T05:46:00.136Z,100.00
2019-03-24T05:48:27.654Z,100.00
2019-03-24T05:50:55.136Z,100.00
2019-03-24T05:53:22.697Z,100.00
2019-03-24T05:55:50.281Z,100.00
2019-03-24T05:58:17.978Z,100.00
2019-03-24T06:00:45.475Z,100.00
2019-03-24T06:03:13.116Z,100.00
2019-03-24T06:05:41.259Z,100.00
2019-03-24T06:08:08.832Z,100.00
2019-03-24T06:10:36.374Z,100.00
2019-03-24T06:13:03.958Z,100.00
2019-03-24T06:15:31.487Z,100.00
2019-03-24T06:17:58.981Z,100.00
2019-03-24T06:20:26.453Z,100.00
2019-03-24T06:22:54.006Z,100.00
2019-03-24T06:25:21.482Z,100.00
2019-03-24T06:27:49.052Z,100.00
2019-03-24T06:30:16.540Z,100.00
2019-03-24T06:32:44.064Z,100.00
2019-03-24T06:35:11.577Z,100.00
2019-03-24T06:37:39.075Z,100.00
2019-03-24T06:40:08.386Z,100.00
2019-03-24T06:42:35.916Z,100.00
2019-03-24T06:45:03.741Z,100.00
2019-03-24T06:47:31.258Z,100.00
2019-03-24T06:49:58.762Z,100.00
2019-03-24T06:52:26.263Z,100.00
2019-03-24T06:54:53.765Z,100.00
2019-03-24T06:57:21.264Z,100.00
2019-03-24T06:59:48.861Z,100.00
2019-03-24T07:02:16.963Z,100.00
2019-03-24T07:04:44.439Z,100.00
2019-03-24T07:07:12.320Z,100.00
2019-03-24T07:09:39.866Z,100.00
2019-03-24T07:12:07.391Z,100.00
2019-03-24T07:14:35.066Z,100.00
2019-03-24T07:17:04.090Z,100.00
2019-03-24T07:19:31.563Z,100.00
2019-03-24T07:21:59.077Z,100.00
2019-03-24T07:24:26.565Z,100.00
2019-03-24T07:26:54.122Z,100.00
2019-03-24T07:29:21.624Z,100.00
2019-03-24T07:31:49.196Z,100.00
2019-03-24T07:34:16.757Z,100.00
2019-03-24T07:36:44.363Z,100.00
2019-03-24T07:39:12.130Z,100.00
2019-03-24T07:41:39.653Z,100.00
2019-03-24T07:44:07.301Z,100.00
2019-03-24T07:46:35.092Z,99.98
2019-03-24T07:49:02.601Z,100.00
2019-03-24T07:51:30.133Z,100.00
2019-03-24T07:53:57.623Z,99.66
2019-03-24T07:56:25.128Z,99.00
2019-03-24T07:58:52.732Z,100.00
2019-03-24T08:01:20.216Z,99.05
2019-03-24T08:03:47.759Z,99.13
2019-03-24T08:06:15.298Z,98.91
2019-03-24T08:08:44.407Z,99.31
2019-03-24T08:11:12.161Z,98.57
2019-03-24T08:13:39.773Z,97.30
2019-03-24T08:16:07.306Z,95.82
2019-03-24T08:18:34.842Z,94.92
2019-03-24T08:21:02.330Z,96.42
2019-03-24T08:23:29.848Z,96.33
2019-03-24T08:25:57.365Z,97.07
2019-03-24T08:28:24.880Z,95.74
2019-03-24T08:30:52.370Z,94.66
2019-03-24T08:33:19.894Z,94.50
2019-03-24T08:35:47.396Z,94.31
2019-03-24T08:38:14.971Z,92.93
2019-03-24T08:40:42.461Z,93.93
2019-03-24T08:43:09.982Z,94.31
2019-03-24T08:45:37.460Z,94.88
2019-03-24T08:48:05.012Z,94.81
2019-03-24T08:50:32.462Z,95.79
2019-03-24T08:53:00.125Z,94.93
2019-03-24T08:55:27.883Z,94.50
2019-03-24T08:57:55.586Z,93.97
2019-03-24T09:00:30.512Z,94.36
2019-03-24T09:02:52.545Z,93.91
2019-03-24T09:05:20.033Z,93.67
2019-03-24T09:07:47.573Z,92.29
2019-03-24T09:10:15.063Z,91.42
2019-03-24T09:12:42.597Z,92.55
2019-03-24T09:15:10.077Z,91.53
2019-03-24T09:17:37.726Z,89.02
2019-03-24T09:20:05.761Z,88.51
2019-03-24T09:22:33.295Z,88.59
2019-03-24T09:25:00.770Z,88.90
2019-03-24T09:27:28.306Z,90.32
2019-03-24T09:29:55.971Z,89.78
2019-03-24T09:32:23.490Z,87.55
2019-03-24T09:34:51.021Z,87.23
2019-03-24T09:37:18.648Z,85.16
2019-03-24T09:39:46.162Z,85.25
2019-03-24T09:42:13.704Z,81.80
2019-03-24T09:44:41.201Z,84.12
2019-03-24T09:47:08.753Z,84.03
2019-03-24T09:49:36.289Z,84.39
2019-03-24T09:52:03.803Z,83.27
2019-03-24T09:54:31.370Z,82.72
2019-03-24T09:56:59.098Z,81.81
2019-03-24T09:59:26.656Z,81.66
2019-03-24T10:01:54.191Z,80.71
2019-03-24T10:04:21.711Z,80.88
2019-03-24T10:06:49.267Z,79.29
2019-03-24T10:09:16.809Z,80.19
2019-03-24T10:11:44.342Z,75.47
2019-03-24T10:14:11.897Z,77.55
2019-03-24T10:16:39.404Z,74.44
2019-03-24T10:19:13.861Z,76.18
2019-03-24T10:21:36.361Z,77.06
2019-03-24T10:24:03.886Z,77.18
2019-03-24T10:26:31.384Z,74.01
2019-03-24T10:28:58.918Z,69.89
2019-03-24T10:31:26.426Z,70.37
2019-03-24T10:33:54.064Z,69.11
2019-03-24T10:36:21.573Z,68.50
2019-03-24T10:38:49.105Z,66.98
2019-03-24T10:41:16.626Z,64.12
2019-03-24T10:43:44.151Z,60.69
2019-03-24T10:46:11.659Z,64.50
2019-03-24T10:48:39.244Z,60.21
2019-03-24T10:51:06.857Z,60.34
2019-03-24T10:53:34.374Z,57.86
2019-03-24T10:56:01.866Z,58.79
2019-03-24T10:58:29.703Z,60.53
2019-03-24T11:00:57.524Z,57.79
2019-03-24T11:03:25.209Z,56.06
2019-03-24T11:05:52.847Z,60.94
2019-03-24T11:08:20.335Z,57.81
2019-03-24T11:10:47.923Z,56.15
2019-03-24T11:13:15.511Z,58.62
2019-03-24T11:15:43.025Z,54.92
2019-03-24T11:18:10.514Z,55.76
2019-03-24T11:20:38.056Z,54.12
2019-03-24T11:23:05.610Z,57.32
2019-03-24T11:25:33.121Z,52.78
2019-03-24T11:28:00.601Z,53.71
2019-03-24T11:30:28.372Z,54.75
2019-03-24T11:32:55.958Z,52.70
2019-03-24T11:35:23.510Z,52.35
2019-03-24T11:37:51.011Z,51.26
2019-03-24T11:40:18.701Z,50.67
2019-03-24T11:42:46.306Z,52.64
2019-03-24T11:45:15.370Z,50.62
2019-03-24T11:47:42.860Z,49.68
2019-03-24T11:50:10.928Z,49.60
2019-03-24T11:52:38.443Z,50.65
2019-03-24T11:55:07.271Z,49.13
2019-03-24T11:57:34.897Z,50.18
2019-03-24T12:00:03.282Z,52.09
2019-03-24T12:02:31.543Z,49.96
2019-03-24T12:04:59.180Z,49.05
2019-03-24T12:07:26.689Z,49.78
2019-03-24T12:09:54.323Z,50.33
2019-03-24T12:12:21.983Z,54.15
2019-03-24T12:14:50.159Z,49.52
2019-03-24T12:17:17.820Z,51.32
2019-03-24T12:19:56.274Z,52.49
2019-03-24T12:22:15.230Z,52.00
2019-03-24T12:24:42.879Z,50.24
2019-03-24T12:27:10.378Z,51.50
2019-03-24T12:29:37.923Z,50.48
2019-03-24T12:32:05.582Z,50.10
2019-03-24T12:34:33.121Z,52.39
2019-03-24T12:37:00.651Z,49.57
2019-03-24T12:39:28.637Z,49.23
2019-03-24T12:41:56.163Z,51.18
2019-03-24T12:44:23.678Z,50.87
2019-03-24T12:46:51.229Z,50.20
2019-03-24T12:49:18.781Z,51.96
2019-03-24T12:51:46.328Z,50.75
2019-03-24T12:54:14.017Z,51.32
2019-03-24T12:56:41.653Z,49.59
2019-03-24T12:59:09.180Z,50.81
2019-03-24T13:01:36.738Z,51.23
2019-03-24T13:04:04.487Z,50.69
2019-03-24T13:06:32.104Z,50.46
2019-03-24T13:08:59.720Z,51.35
2019-03-24T13:11:28.351Z,53.25
2019-03-24T13:13:56.358Z,52.80
2019-03-24T13:16:23.953Z,51.72
2019-03-24T13:18:51.505Z,53.24
2019-03-24T13:21:19.245Z,52.32
2019-03-24T13:23:46.975Z,51.32
2019-03-24T13:26:15.011Z,51.91
2019-03-24T13:28:42.510Z,51.12
2019-03-24T13:31:10.040Z,51.16
2019-03-24T13:33:37.826Z,49.29
2019-03-24T13:36:10.561Z,47.24
2019-03-24T13:38:38.148Z,46.59
2019-03-24T13:41:06.511Z,47.86
2019-03-24T13:43:34.044Z,45.04
2019-03-24T13:46:01.913Z,43.33
2019-03-24T13:48:29.402Z,43.66
2019-03-24T13:50:56.923Z,45.80
2019-03-24T13:53:24.472Z,46.00
2019-03-24T13:55:52.040Z,42.40
2019-03-24T13:58:19.635Z,44.06
2019-03-24T14:00:47.232Z,42.17
2019-03-24T14:03:14.726Z,43.39
2019-03-24T14:05:42.298Z,41.50
2019-03-24T14:08:09.829Z,41.88
2019-03-24T14:10:37.395Z,43.93
2019-03-24T14:13:04.885Z,42.57
2019-03-24T14:15:32.394Z,42.95
2019-03-24T14:17:59.917Z,41.71
2019-03-24T14:20:27.440Z,43.38
2019-03-24T14:22:55.410Z,41.53
2019-03-24T14:25:23.043Z,43.42
2019-03-24T14:27:50.701Z,43.69
2019-03-24T14:30:28.372Z,38.34
2019-03-24T14:32:55.930Z,39.13
2019-03-24T14:35:23.438Z,42.83
2019-03-24T14:37:50.981Z,42.37
2019-03-24T14:40:18.530Z,41.22
2019-03-24T14:42:46.134Z,42.55
2019-03-24T14:45:13.645Z,42.46
2019-03-24T14:47:41.209Z,42.74
2019-03-24T14:50:09.016Z,42.36
2019-03-24T14:52:36.571Z,41.99
2019-03-24T14:55:04.647Z,42.80
2019-03-24T14:57:32.189Z,42.87
2019-03-24T14:59:59.770Z,43.64
2019-03-24T15:02:27.372Z,44.48
2019-03-24T15:04:54.980Z,46.00
2019-03-24T15:07:22.688Z,44.68
2019-03-24T15:09:50.282Z,45.21
2019-03-24T15:12:17.912Z,43.80
2019-03-24T15:14:45.499Z,44.30
2019-03-24T15:17:13.141Z,43.87
2019-03-24T15:19:40.693Z,44.03
2019-03-24T15:22:08.363Z,44.03
2019-03-24T15:24:35.892Z,43.99
2019-03-24T15:27:04.120Z,41.80
2019-03-24T15:29:31.798Z,42.56
2019-03-24T15:31:59.387Z,41.32
2019-03-24T15:34:26.971Z,41.98
2019-03-24T15:36:54.506Z,43.76
2019-03-24T15:39:22.255Z,42.77
2019-03-24T15:41:49.829Z,42.08
2019-03-24T15:44:17.345Z,42.68
2019-03-24T15:46:44.973Z,44.46
2019-03-24T15:49:12.524Z,45.87
2019-03-24T15:51:40.163Z,46.77
2019-03-24T15:54:07.849Z,46.27
2019-03-24T15:56:35.393Z,46.25
2019-03-24T15:59:03.212Z,46.02
2019-03-24T16:01:30.746Z,46.82
2019-03-24T16:03:58.291Z,46.43
2019-03-24T16:06:25.962Z,48.37
2019-03-24T16:08:53.537Z,48.49
2019-03-24T16:11:21.132Z,50.22
2019-03-24T16:13:48.693Z,52.05
2019-03-24T16:16:16.253Z,52.75
2019-03-24T16:18:53.061Z,51.66
2019-03-24T16:21:27.654Z,51.50
2019-03-24T16:23:50.123Z,50.91
2019-03-24T16:26:17.662Z,49.60
2019-03-24T16:28:45.182Z,49.20
2019-03-24T16:31:12.769Z,49.43
2019-03-24T16:33:40.350Z,48.78
2019-03-24T16:36:07.868Z,49.01
2019-03-24T16:38:35.392Z,48.40
2019-03-24T16:41:02.901Z,48.74
2019-03-24T16:43:30.402Z,48.62
2019-03-24T16:45:57.901Z,48.88
2019-03-24T16:48:36.206Z,49.26
2019-03-24T16:50:54.855Z,49.81
2019-03-24T16:53:22.547Z,49.48
2019-03-24T16:55:50.165Z,50.68
2019-03-24T16:58:17.737Z,50.65
2019-03-24T17:00:45.276Z,51.36
2019-03-24T17:03:12.822Z,51.81
2019-03-24T17:05:40.309Z,52.68
2019-03-24T17:08:07.932Z,52.67
2019-03-24T17:10:35.429Z,53.58
2019-03-24T17:13:02.979Z,53.51
2019-03-24T17:15:30.543Z,53.98
2019-03-24T17:17:58.070Z,54.99
2019-03-24T17:20:25.601Z,54.89
2019-03-24T17:22:53.174Z,55.41
2019-03-24T17:25:20.701Z,54.78
2019-03-24T17:27:48.188Z,55.00
2019-03-24T17:30:16.051Z,55.64
2019-03-24T17:32:43.551Z,55.36
2019-03-24T17:35:11.293Z,55.29
2019-03-24T17:37:38.833Z,55.53
2019-03-24T17:40:08.000Z,56.01
2019-03-24T17:42:35.512Z,56.90
2019-03-24T17:45:03.493Z,56.80
2019-03-24T17:47:31.038Z,57.07
2019-03-24T17:49:58.684Z,57.33
2019-03-24T17:52:26.392Z,56.96
2019-03-24T17:54:54.113Z,57.89
2019-03-24T17:57:21.658Z,57.57
2019-03-24T17:59:49.238Z,57.45
2019-03-24T18:02:16.783Z,58.21
2019-03-24T18:04:47.341Z,58.56
2019-03-24T18:07:14.822Z,59.36
2019-03-24T18:09:42.334Z,59.60
2019-03-24T18:12:09.833Z,59.76
2019-03-24T18:14:37.366Z,60.13
2019-03-24T18:17:04.882Z,61.37
2019-03-24T18:19:32.438Z,61.91
2019-03-24T18:21:59.918Z,61.86
2019-03-24T18:24:27.488Z,62.79
2019-03-24T18:26:54.962Z,62.65
2019-03-24T18:29:22.506Z,63.39
2019-03-24T18:31:50.013Z,63.69
2019-03-24T18:34:17.609Z,64.76
2019-03-24T18:36:45.117Z,64.46
2019-03-24T18:39:12.702Z,65.03
2019-03-24T18:41:40.193Z,64.73
2019-03-24T18:44:07.753Z,65.26
2019-03-24T18:46:35.424Z,66.42
2019-03-24T18:49:03.091Z,66.20
2019-03-24T18:51:30.691Z,66.19
2019-03-24T18:53:58.258Z,67.05
2019-03-24T18:56:25.839Z,67.27
2019-03-24T18:58:53.368Z,67.56
2019-03-24T19:01:20.892Z,66.33
2019-03-24T19:03:48.414Z,66.06
2019-03-24T19:06:16.042Z,66.33
2019-03-24T19:08:43.587Z,66.30
2019-03-24T19:11:11.109Z,66.68
2019-03-24T19:13:38.621Z,67.48
2019-03-24T19:16:06.120Z,67.56
2019-03-24T19:18:33.699Z,67.89
2019-03-24T19:21:02.918Z,68.03
2019-03-24T19:23:30.451Z,67.62
2019-03-24T19:25:59.666Z,68.75
2019-03-24T19:28:27.216Z,68.71
2019-03-24T19:30:54.742Z,69.10
2019-03-24T19:33:22.261Z,69.20
2019-03-24T19:35:49.774Z,69.27
2019-03-24T19:38:17.286Z,69.42
2019-03-24T19:40:44.891Z,69.60
2019-03-24T19:43:12.421Z,68.95
2019-03-24T19:45:39.937Z,69.07
2019-03-24T19:48:07.456Z,69.57
2019-03-24T19:50:34.981Z,70.19
2019-03-24T19:53:02.721Z,69.56
2019-03-24T19:55:30.250Z,70.01
2019-03-24T19:57:57.848Z,70.10
2019-03-24T20:00:25.549Z,70.09
2019-03-24T20:02:53.020Z,69.82
2019-03-24T20:05:20.553Z,70.16
2019-03-24T20:07:48.536Z,70.27
2019-03-24T20:10:16.169Z,70.31
2019-03-24T20:12:43.791Z,70.62
2019-03-24T20:15:11.411Z,70.62
2019-03-24T20:17:38.910Z,70.27
2019-03-24T20:20:06.497Z,70.65
2019-03-24T20:22:34.012Z,71.07
2019-03-24T20:25:01.526Z,71.36
2019-03-24T20:27:29.170Z,71.00
2019-03-24T20:29:56.656Z,70.33
2019-03-24T20:32:24.169Z,71.23
2019-03-24T20:34:51.725Z,71.34
2019-03-24T20:37:20.610Z,71.59
2019-03-24T20:39:48.105Z,71.91
2019-03-24T20:42:15.660Z,71.53
2019-03-24T20:44:43.156Z,72.24
2019-03-24T20:47:10.664Z,72.48
2019-03-24T20:49:40.849Z,73.07
2019-03-24T20:52:09.583Z,72.73
2019-03-24T20:54:37.374Z,72.92
2019-03-24T20:57:04.932Z,73.29
2019-03-24T20:59:32.437Z,73.37
2019-03-24T21:01:59.984Z,74.18
2019-03-24T21:04:27.486Z,73.81
2019-03-24T21:06:55.048Z,74.41
2019-03-24T21:09:22.889Z,73.60
2019-03-24T21:11:50.655Z,74.34
2019-03-24T21:14:18.222Z,74.46
2019-03-24T21:16:46.093Z,74.53
2019-03-24T21:19:13.646Z,75.06
2019-03-24T21:21:41.285Z,75.30
2019-03-24T21:24:08.836Z,75.62
2019-03-24T21:26:36.354Z,75.37
2019-03-24T21:29:03.990Z,76.33
2019-03-24T21:31:31.727Z,76.19
2019-03-24T21:33:59.354Z,76.23
2019-03-24T21:36:26.946Z,76.42
2019-03-24T21:38:54.632Z,76.11
2019-03-24T21:41:22.344Z,76.18
2019-03-24T21:43:50.159Z,76.94
2019-03-24T21:46:17.988Z,76.92
2019-03-24T21:48:45.657Z,77.55
2019-03-24T21:51:13.389Z,77.56
2019-03-24T21:53:41.146Z,78.49
2019-03-24T21:56:08.804Z,78.85
2019-03-24T21:58:36.525Z,79.27
2019-03-24T22:01:04.347Z,79.27
2019-03-24T22:03:32.095Z,79.52
2019-03-24T22:05:59.625Z,78.77
2019-03-24T22:08:27.626Z,79.50
2019-03-24T22:10:55.218Z,79.51
2019-03-24T22:13:22.846Z,79.74
2019-03-24T22:15:50.519Z,79.26
2019-03-24T22:18:18.287Z,78.90
2019-03-24T22:20:49.088Z,79.16
2019-03-24T22:23:15.394Z,79.05
2019-03-24T22:25:42.897Z,79.37
2019-03-24T22:28:10.463Z,78.72
2019-03-24T22:30:37.956Z,79.53
2019-03-24T22:33:05.514Z,79.99
2019-03-24T22:35:33.024Z,80.05
2019-03-24T22:38:02.357Z,79.93
2019-03-24T22:40:29.831Z,80.46
2019-03-24T22:42:57.328Z,80.65
2019-03-24T22:45:24.842Z,81.20
2019-03-24T22:47:52.406Z,80.75
2019-03-24T22:50:19.900Z,80.38
2019-03-24T22:52:47.427Z,79.93
2019-03-24T22:55:15.007Z,80.89
2019-03-24T22:57:42.549Z,80.85
2019-03-24T23:00:17.524Z,81.29
2019-03-24T23:02:45.036Z,81.60
2019-03-24T23:05:12.612Z,82.39
2019-03-24T23:07:40.124Z,82.20
2019-03-24T23:10:07.698Z,81.51
2019-03-24T23:12:35.217Z,82.37
2019-03-24T23:15:02.774Z,82.49
2019-03-24T23:17:30.287Z,82.67
2019-03-24T23:19:57.862Z,82.63
2019-03-24T23:22:25.408Z,82.85
2019-03-24T23:24:52.996Z,82.51
2019-03-24T23:27:20.567Z,82.94
2019-03-24T23:29:48.045Z,83.82
2019-03-24T23:32:15.568Z,83.81
2019-03-24T23:34:43.122Z,83.26
2019-03-24T23:37:10.592Z,82.56
2019-03-24T23:39:38.090Z,84.01
2019-03-24T23:42:05.555Z,83.87
2019-03-24T23:44:33.049Z,84.40
2019-03-24T23:47:00.568Z,83.75
2019-03-24T23:49:28.240Z,84.04
2019-03-24T23:51:55.776Z,83.68
2019-03-24T23:54:27.251Z,83.60
2019-03-24T23:56:52.723Z,84.31
2019-03-24T23:59:20.281Z,84.44
